sensor_id;sensor_type;location;lat;lon;timestamp;P1;durP1;ratioP1;P2;durP2;ratioP2
66145;SDS011;52948;60.040;30.320;2023-01-08T00:04:13;5.47;;;2.83;;
66145;SDS011;52948;60.040;30.320;2023-01-08T00:09:18;6.05;;;3.30;;
66145;SDS011;52948;60.040;30.320;2023-01-08T00:14:21;10.95;;;6.18;;
66145;SDS011;52948;60.040;30.320;2023-01-08T00:19:24;10.50;;;6.50;;
66145;SDS011;52948;60.040;30.320;2023-01-08T00:24:26;11.98;;;6.55;;
66145;SDS011;52948;60.040;30.320;2023-01-08T00:29:32;11.27;;;6.10;;
66145;SDS011;52948;60.040;30.320;2023-01-08T00:34:35;10.35;;;6.57;;
66145;SDS011;52948;60.040;30.320;2023-01-08T00:39:41;9.65;;;5.22;;
66145;SDS011;52948;60.040;30.320;2023-01-08T00:44:44;9.70;;;4.80;;
66145;SDS011;52948;60.040;30.320;2023-01-08T00:49:46;9.82;;;5.03;;
66145;SDS011;52948;60.040;30.320;2023-01-08T00:54:48;11.15;;;6.10;;
66145;SDS011;52948;60.040;30.320;2023-01-08T00:59:51;14.75;;;6.38;;
66145;SDS011;52948;60.040;30.320;2023-01-08T01:04:53;15.43;;;6.45;;
66145;SDS011;52948;60.040;30.320;2023-01-08T01:09:59;13.48;;;5.97;;
66145;SDS011;52948;60.040;30.320;2023-01-08T01:15:06;12.82;;;6.68;;
66145;SDS011;52948;60.040;30.320;2023-01-08T01:20:12;13.50;;;6.60;;
66145;SDS011;52948;60.040;30.320;2023-01-08T01:25:16;13.10;;;5.95;;
66145;SDS011;52948;60.040;30.320;2023-01-08T01:30:18;13.48;;;5.75;;
66145;SDS011;52948;60.040;30.320;2023-01-08T01:35:21;11.98;;;5.63;;
66145;SDS011;52948;60.040;30.320;2023-01-08T01:40:23;10.45;;;5.13;;
66145;SDS011;52948;60.040;30.320;2023-01-08T01:45:26;10.77;;;4.72;;
66145;SDS011;52948;60.040;30.320;2023-01-08T01:50:29;8.30;;;4.57;;
66145;SDS011;52948;60.040;30.320;2023-01-08T01:55:34;9.07;;;4.72;;
66145;SDS011;52948;60.040;30.320;2023-01-08T02:00:39;9.50;;;4.10;;
66145;SDS011;52948;60.040;30.320;2023-01-08T02:11:11;8.23;;;4.30;;
66145;SDS011;52948;60.040;30.320;2023-01-08T02:27:10;9.25;;;4.60;;
66145;SDS011;52948;60.040;30.320;2023-01-08T02:32:14;9.70;;;4.53;;
66145;SDS011;52948;60.040;30.320;2023-01-08T02:37:17;8.48;;;4.15;;
66145;SDS011;52948;60.040;30.320;2023-01-08T02:42:38;10.48;;;4.72;;
66145;SDS011;52948;60.040;30.320;2023-01-08T02:52:55;10.32;;;4.88;;
66145;SDS011;52948;60.040;30.320;2023-01-08T02:58:20;10.07;;;5.30;;
66145;SDS011;52948;60.040;30.320;2023-01-08T03:03:24;9.77;;;5.28;;
66145;SDS011;52948;60.040;30.320;2023-01-08T03:08:28;10.27;;;4.95;;
66145;SDS011;52948;60.040;30.320;2023-01-08T03:19:12;9.55;;;4.65;;
66145;SDS011;52948;60.040;30.320;2023-01-08T03:24:23;13.18;;;5.60;;
66145;SDS011;52948;60.040;30.320;2023-01-08T03:29:27;10.25;;;4.65;;
66145;SDS011;52948;60.040;30.320;2023-01-08T03:34:30;11.35;;;4.88;;
66145;SDS011;52948;60.040;30.320;2023-01-08T03:39:38;11.48;;;5.35;;
66145;SDS011;52948;60.040;30.320;2023-01-08T03:44:45;13.57;;;5.75;;
66145;SDS011;52948;60.040;30.320;2023-01-08T03:49:47;10.90;;;4.78;;
66145;SDS011;52948;60.040;30.320;2023-01-08T03:54:51;10.10;;;3.90;;
66145;SDS011;52948;60.040;30.320;2023-01-08T03:59:54;10.30;;;4.15;;
66145;SDS011;52948;60.040;30.320;2023-01-08T04:04:56;11.40;;;5.28;;
66145;SDS011;52948;60.040;30.320;2023-01-08T04:09:58;15.18;;;5.00;;
66145;SDS011;52948;60.040;30.320;2023-01-08T04:15:01;11.52;;;5.55;;
66145;SDS011;52948;60.040;30.320;2023-01-08T04:20:04;11.80;;;5.65;;
66145;SDS011;52948;60.040;30.320;2023-01-08T04:25:07;11.60;;;5.07;;
66145;SDS011;52948;60.040;30.320;2023-01-08T04:30:10;11.00;;;4.90;;
66145;SDS011;52948;60.040;30.320;2023-01-08T04:35:13;10.68;;;5.15;;
66145;SDS011;52948;60.040;30.320;2023-01-08T04:40:15;11.65;;;4.82;;
66145;SDS011;52948;60.040;30.320;2023-01-08T04:45:17;12.00;;;5.38;;
66145;SDS011;52948;60.040;30.320;2023-01-08T04:50:20;14.93;;;6.32;;
66145;SDS011;52948;60.040;30.320;2023-01-08T04:55:22;12.48;;;5.60;;
66145;SDS011;52948;60.040;30.320;2023-01-08T05:00:24;10.02;;;5.75;;
66145;SDS011;52948;60.040;30.320;2023-01-08T05:05:26;12.27;;;4.07;;
66145;SDS011;52948;60.040;30.320;2023-01-08T05:10:29;13.93;;;6.38;;
66145;SDS011;52948;60.040;30.320;2023-01-08T05:15:37;10.65;;;4.85;;
66145;SDS011;52948;60.040;30.320;2023-01-08T05:26:06;12.88;;;6.32;;
66145;SDS011;52948;60.040;30.320;2023-01-08T05:31:08;13.73;;;5.95;;
66145;SDS011;52948;60.040;30.320;2023-01-08T05:36:12;14.23;;;6.10;;
66145;SDS011;52948;60.040;30.320;2023-01-08T05:41:15;14.25;;;6.22;;
66145;SDS011;52948;60.040;30.320;2023-01-08T05:46:22;16.35;;;6.07;;
66145;SDS011;52948;60.040;30.320;2023-01-08T05:51:24;16.50;;;6.43;;
66145;SDS011;52948;60.040;30.320;2023-01-08T05:56:27;13.52;;;6.85;;
66145;SDS011;52948;60.040;30.320;2023-01-08T06:01:29;15.80;;;5.72;;
66145;SDS011;52948;60.040;30.320;2023-01-08T06:06:31;11.80;;;5.45;;
66145;SDS011;52948;60.040;30.320;2023-01-08T06:11:34;15.63;;;7.50;;
66145;SDS011;52948;60.040;30.320;2023-01-08T06:16:36;19.83;;;7.53;;
66145;SDS011;52948;60.040;30.320;2023-01-08T06:21:38;17.80;;;8.55;;
66145;SDS011;52948;60.040;30.320;2023-01-08T06:26:41;17.35;;;7.80;;
66145;SDS011;52948;60.040;30.320;2023-01-08T06:31:44;19.30;;;8.18;;
66145;SDS011;52948;60.040;30.320;2023-01-08T06:36:51;15.30;;;6.43;;
66145;SDS011;52948;60.040;30.320;2023-01-08T06:41:53;16.85;;;6.65;;
66145;SDS011;52948;60.040;30.320;2023-01-08T06:46:56;9.70;;;4.90;;
66145;SDS011;52948;60.040;30.320;2023-01-08T06:51:58;13.80;;;6.78;;
66145;SDS011;52948;60.040;30.320;2023-01-08T06:57:00;15.63;;;5.30;;
66145;SDS011;52948;60.040;30.320;2023-01-08T07:02:02;17.23;;;7.03;;
66145;SDS011;52948;60.040;30.320;2023-01-08T07:07:05;15.27;;;6.10;;
66145;SDS011;52948;60.040;30.320;2023-01-08T07:12:11;16.02;;;7.60;;
66145;SDS011;52948;60.040;30.320;2023-01-08T07:17:14;22.27;;;8.20;;
66145;SDS011;52948;60.040;30.320;2023-01-08T07:22:16;15.82;;;7.20;;
66145;SDS011;52948;60.040;30.320;2023-01-08T07:27:23;16.83;;;7.45;;
66145;SDS011;52948;60.040;30.320;2023-01-08T07:32:25;11.20;;;4.40;;
66145;SDS011;52948;60.040;30.320;2023-01-08T07:37:27;12.25;;;5.72;;
66145;SDS011;52948;60.040;30.320;2023-01-08T07:42:30;16.30;;;6.35;;
66145;SDS011;52948;60.040;30.320;2023-01-08T07:47:32;14.65;;;6.93;;
66145;SDS011;52948;60.040;30.320;2023-01-08T07:52:34;16.85;;;6.97;;
66145;SDS011;52948;60.040;30.320;2023-01-08T07:57:41;16.75;;;6.43;;
66145;SDS011;52948;60.040;30.320;2023-01-08T08:02:47;14.35;;;5.47;;
66145;SDS011;52948;60.040;30.320;2023-01-08T08:07:50;11.13;;;5.22;;
66145;SDS011;52948;60.040;30.320;2023-01-08T08:12:52;13.68;;;5.80;;
66145;SDS011;52948;60.040;30.320;2023-01-08T08:17:54;12.93;;;5.55;;
66145;SDS011;52948;60.040;30.320;2023-01-08T08:23:04;13.57;;;4.93;;
66145;SDS011;52948;60.040;30.320;2023-01-08T08:28:36;10.55;;;4.82;;
66145;SDS011;52948;60.040;30.320;2023-01-08T08:33:39;10.18;;;4.88;;
66145;SDS011;52948;60.040;30.320;2023-01-08T08:38:41;11.20;;;4.38;;
66145;SDS011;52948;60.040;30.320;2023-01-08T08:43:47;11.57;;;6.43;;
66145;SDS011;52948;60.040;30.320;2023-01-08T08:48:52;13.95;;;5.10;;
66145;SDS011;52948;60.040;30.320;2023-01-08T08:59:26;11.43;;;5.80;;
66145;SDS011;52948;60.040;30.320;2023-01-08T09:04:29;14.52;;;5.57;;
66145;SDS011;52948;60.040;30.320;2023-01-08T09:09:35;12.13;;;4.50;;
66145;SDS011;52948;60.040;30.320;2023-01-08T09:14:37;10.75;;;5.60;;
66145;SDS011;52948;60.040;30.320;2023-01-08T09:19:44;11.73;;;5.80;;
66145;SDS011;52948;60.040;30.320;2023-01-08T09:24:47;10.63;;;4.47;;
66145;SDS011;52948;60.040;30.320;2023-01-08T09:29:49;7.35;;;4.07;;
66145;SDS011;52948;60.040;30.320;2023-01-08T09:34:52;8.13;;;4.05;;
66145;SDS011;52948;60.040;30.320;2023-01-08T09:39:54;10.85;;;5.10;;
66145;SDS011;52948;60.040;30.320;2023-01-08T09:44:56;13.43;;;5.43;;
66145;SDS011;52948;60.040;30.320;2023-01-08T09:50:00;11.05;;;5.05;;
66145;SDS011;52948;60.040;30.320;2023-01-08T09:55:09;10.35;;;4.75;;
66145;SDS011;52948;60.040;30.320;2023-01-08T10:00:16;11.80;;;5.07;;
66145;SDS011;52948;60.040;30.320;2023-01-08T10:05:24;13.10;;;7.00;;
66145;SDS011;52948;60.040;30.320;2023-01-08T10:10:28;9.30;;;5.07;;
66145;SDS011;52948;60.040;30.320;2023-01-08T10:15:31;10.95;;;5.45;;
66145;SDS011;52948;60.040;30.320;2023-01-08T10:20:34;10.25;;;5.30;;
66145;SDS011;52948;60.040;30.320;2023-01-08T10:31:02;13.05;;;5.93;;
66145;SDS011;52948;60.040;30.320;2023-01-08T10:36:07;10.88;;;5.30;;
66145;SDS011;52948;60.040;30.320;2023-01-08T10:41:11;12.13;;;5.13;;
66145;SDS011;52948;60.040;30.320;2023-01-08T10:46:25;13.02;;;5.78;;
66145;SDS011;52948;60.040;30.320;2023-01-08T10:51:32;11.32;;;5.80;;
66145;SDS011;52948;60.040;30.320;2023-01-08T10:56:42;14.57;;;5.97;;
66145;SDS011;52948;60.040;30.320;2023-01-08T11:01:48;12.98;;;4.13;;
66145;SDS011;52948;60.040;30.320;2023-01-08T11:06:52;11.68;;;6.05;;
66145;SDS011;52948;60.040;30.320;2023-01-08T11:12:00;9.17;;;5.00;;
66145;SDS011;52948;60.040;30.320;2023-01-08T11:17:09;11.27;;;6.20;;
66145;SDS011;52948;60.040;30.320;2023-01-08T11:22:23;8.68;;;4.22;;
66145;SDS011;52948;60.040;30.320;2023-01-08T11:27:39;8.60;;;4.57;;
66145;SDS011;52948;60.040;30.320;2023-01-08T11:38:14;7.25;;;4.10;;
66145;SDS011;52948;60.040;30.320;2023-01-08T11:48:46;11.38;;;5.63;;
66145;SDS011;52948;60.040;30.320;2023-01-08T12:05:20;9.27;;;3.25;;
66145;SDS011;52948;60.040;30.320;2023-01-08T12:10:48;3.55;;;2.22;;
66145;SDS011;52948;60.040;30.320;2023-01-08T12:16:16;3.75;;;2.25;;
66145;SDS011;52948;60.040;30.320;2023-01-08T12:26:40;5.45;;;2.70;;
66145;SDS011;52948;60.040;30.320;2023-01-08T12:32:00;1.73;;;1.63;;
66145;SDS011;52948;60.040;30.320;2023-01-08T12:42:47;4.63;;;2.22;;
66145;SDS011;52948;60.040;30.320;2023-01-08T12:48:03;3.22;;;1.45;;
66145;SDS011;52948;60.040;30.320;2023-01-08T12:58:20;1.30;;;0.85;;
66145;SDS011;52948;60.040;30.320;2023-01-08T13:03:27;5.25;;;3.08;;
66145;SDS011;52948;60.040;30.320;2023-01-08T13:08:32;3.38;;;1.73;;
66145;SDS011;52948;60.040;30.320;2023-01-08T13:13:37;5.75;;;1.95;;
66145;SDS011;52948;60.040;30.320;2023-01-08T13:18:55;2.25;;;1.52;;
66145;SDS011;52948;60.040;30.320;2023-01-08T13:24:45;5.25;;;3.20;;
66145;SDS011;52948;60.040;30.320;2023-01-08T13:29:34;4.93;;;2.72;;
66145;SDS011;52948;60.040;30.320;2023-01-08T13:34:39;5.45;;;2.90;;
66145;SDS011;52948;60.040;30.320;2023-01-08T13:39:43;4.20;;;1.92;;
66145;SDS011;52948;60.040;30.320;2023-01-08T13:44:55;3.58;;;2.00;;
66145;SDS011;52948;60.040;30.320;2023-01-08T13:50:00;5.50;;;2.38;;
66145;SDS011;52948;60.040;30.320;2023-01-08T13:55:10;1.85;;;1.23;;
66145;SDS011;52948;60.040;30.320;2023-01-08T14:00:23;1.80;;;1.65;;
66145;SDS011;52948;60.040;30.320;2023-01-08T14:05:27;6.28;;;1.90;;
66145;SDS011;52948;60.040;30.320;2023-01-08T14:10:31;6.65;;;2.80;;
66145;SDS011;52948;60.040;30.320;2023-01-08T14:15:33;5.80;;;2.30;;
66145;SDS011;52948;60.040;30.320;2023-01-08T14:20:37;2.30;;;1.48;;
66145;SDS011;52948;60.040;30.320;2023-01-08T14:25:40;6.22;;;2.00;;
66145;SDS011;52948;60.040;30.320;2023-01-08T14:30:46;5.90;;;2.60;;
66145;SDS011;52948;60.040;30.320;2023-01-08T14:35:49;5.72;;;2.28;;
66145;SDS011;52948;60.040;30.320;2023-01-08T14:40:57;1.60;;;1.13;;
66145;SDS011;52948;60.040;30.320;2023-01-08T14:45:59;4.65;;;2.63;;
66145;SDS011;52948;60.040;30.320;2023-01-08T14:51:05;4.68;;;2.38;;
66145;SDS011;52948;60.040;30.320;2023-01-08T14:56:12;2.03;;;1.80;;
66145;SDS011;52948;60.040;30.320;2023-01-08T15:01:27;2.42;;;1.67;;
66145;SDS011;52948;60.040;30.320;2023-01-08T15:06:31;3.50;;;2.03;;
66145;SDS011;52948;60.040;30.320;2023-01-08T15:11:33;4.28;;;1.65;;
66145;SDS011;52948;60.040;30.320;2023-01-08T15:16:50;6.10;;;2.47;;
66145;SDS011;52948;60.040;30.320;2023-01-08T15:21:56;3.97;;;2.53;;
66145;SDS011;52948;60.040;30.320;2023-01-08T15:27:00;0.82;;;0.73;;
66145;SDS011;52948;60.040;30.320;2023-01-08T15:37:15;1.73;;;1.23;;
66145;SDS011;52948;60.040;30.320;2023-01-08T15:42:18;3.70;;;1.98;;
66145;SDS011;52948;60.040;30.320;2023-01-08T15:47:40;2.03;;;0.98;;
66145;SDS011;52948;60.040;30.320;2023-01-08T15:52:43;3.88;;;2.50;;
66145;SDS011;52948;60.040;30.320;2023-01-08T15:57:45;3.10;;;1.38;;
66145;SDS011;52948;60.040;30.320;2023-01-08T16:02:48;2.80;;;1.27;;
66145;SDS011;52948;60.040;30.320;2023-01-08T16:07:52;5.68;;;2.08;;
66145;SDS011;52948;60.040;30.320;2023-01-08T16:12:54;3.85;;;2.00;;
66145;SDS011;52948;60.040;30.320;2023-01-08T16:17:57;2.08;;;0.80;;
66145;SDS011;52948;60.040;30.320;2023-01-08T16:23:00;6.32;;;3.28;;
66145;SDS011;52948;60.040;30.320;2023-01-08T16:28:02;7.45;;;3.30;;
66145;SDS011;52948;60.040;30.320;2023-01-08T16:33:05;4.30;;;2.15;;
66145;SDS011;52948;60.040;30.320;2023-01-08T16:38:07;3.88;;;1.67;;
66145;SDS011;52948;60.040;30.320;2023-01-08T16:43:11;1.90;;;1.70;;
66145;SDS011;52948;60.040;30.320;2023-01-08T16:48:14;2.70;;;2.17;;
66145;SDS011;52948;60.040;30.320;2023-01-08T16:53:16;4.25;;;2.17;;
66145;SDS011;52948;60.040;30.320;2023-01-08T16:58:18;3.63;;;2.13;;
66145;SDS011;52948;60.040;30.320;2023-01-08T17:03:20;2.17;;;1.35;;
66145;SDS011;52948;60.040;30.320;2023-01-08T17:08:25;4.68;;;2.13;;
66145;SDS011;52948;60.040;30.320;2023-01-08T17:13:28;6.40;;;3.13;;
66145;SDS011;52948;60.040;30.320;2023-01-08T17:18:30;5.32;;;2.70;;
66145;SDS011;52948;60.040;30.320;2023-01-08T17:23:32;6.05;;;2.65;;
66145;SDS011;52948;60.040;30.320;2023-01-08T17:28:35;2.13;;;1.15;;
66145;SDS011;52948;60.040;30.320;2023-01-08T17:33:38;5.07;;;2.55;;
66145;SDS011;52948;60.040;30.320;2023-01-08T17:38:40;2.88;;;1.60;;
66145;SDS011;52948;60.040;30.320;2023-01-08T17:43:47;5.30;;;2.72;;
66145;SDS011;52948;60.040;30.320;2023-01-08T17:48:49;4.75;;;2.22;;
66145;SDS011;52948;60.040;30.320;2023-01-08T17:53:51;4.30;;;1.90;;
66145;SDS011;52948;60.040;30.320;2023-01-08T17:58:54;2.35;;;1.33;;
66145;SDS011;52948;60.040;30.320;2023-01-08T18:03:56;2.50;;;2.00;;
66145;SDS011;52948;60.040;30.320;2023-01-08T18:08:58;4.10;;;2.03;;
66145;SDS011;52948;60.040;30.320;2023-01-08T18:14:01;4.00;;;2.67;;
66145;SDS011;52948;60.040;30.320;2023-01-08T18:19:04;3.17;;;1.95;;
66145;SDS011;52948;60.040;30.320;2023-01-08T18:24:06;1.38;;;1.10;;
66145;SDS011;52948;60.040;30.320;2023-01-08T18:29:09;3.85;;;2.05;;
66145;SDS011;52948;60.040;30.320;2023-01-08T18:34:11;3.58;;;1.92;;
66145;SDS011;52948;60.040;30.320;2023-01-08T18:39:15;6.18;;;3.15;;
66145;SDS011;52948;60.040;30.320;2023-01-08T18:44:17;2.42;;;1.35;;
66145;SDS011;52948;60.040;30.320;2023-01-08T18:49:20;5.95;;;2.50;;
66145;SDS011;52948;60.040;30.320;2023-01-08T18:54:24;3.90;;;1.90;;
66145;SDS011;52948;60.040;30.320;2023-01-08T18:59:26;1.80;;;1.70;;
66145;SDS011;52948;60.040;30.320;2023-01-08T19:04:28;4.88;;;2.67;;
66145;SDS011;52948;60.040;30.320;2023-01-08T19:09:30;4.53;;;2.08;;
66145;SDS011;52948;60.040;30.320;2023-01-08T19:14:32;5.90;;;2.38;;
66145;SDS011;52948;60.040;30.320;2023-01-08T19:19:35;2.10;;;1.40;;
66145;SDS011;52948;60.040;30.320;2023-01-08T19:24:37;2.28;;;1.42;;
66145;SDS011;52948;60.040;30.320;2023-01-08T19:29:40;3.15;;;1.83;;
66145;SDS011;52948;60.040;30.320;2023-01-08T19:34:43;3.72;;;1.27;;
66145;SDS011;52948;60.040;30.320;2023-01-08T19:39:46;1.23;;;1.15;;
66145;SDS011;52948;60.040;30.320;2023-01-08T19:44:48;5.72;;;1.67;;
66145;SDS011;52948;60.040;30.320;2023-01-08T19:49:51;3.75;;;2.22;;
66145;SDS011;52948;60.040;30.320;2023-01-08T19:54:54;8.23;;;2.42;;
66145;SDS011;52948;60.040;30.320;2023-01-08T19:59:58;2.97;;;2.33;;
66145;SDS011;52948;60.040;30.320;2023-01-08T20:05:00;5.15;;;2.10;;
66145;SDS011;52948;60.040;30.320;2023-01-08T20:10:03;2.40;;;1.70;;
66145;SDS011;52948;60.040;30.320;2023-01-08T20:15:06;2.05;;;1.17;;
66145;SDS011;52948;60.040;30.320;2023-01-08T20:20:10;7.35;;;3.05;;
66145;SDS011;52948;60.040;30.320;2023-01-08T20:25:12;3.72;;;2.10;;
66145;SDS011;52948;60.040;30.320;2023-01-08T20:30:15;3.25;;;1.90;;
66145;SDS011;52948;60.040;30.320;2023-01-08T20:35:22;6.07;;;2.50;;
66145;SDS011;52948;60.040;30.320;2023-01-08T20:40:25;3.78;;;1.77;;
66145;SDS011;52948;60.040;30.320;2023-01-08T20:45:27;2.88;;;1.63;;
66145;SDS011;52948;60.040;30.320;2023-01-08T20:50:30;5.70;;;2.50;;
66145;SDS011;52948;60.040;30.320;2023-01-08T20:55:34;4.93;;;2.10;;
66145;SDS011;52948;60.040;30.320;2023-01-08T21:00:38;1.58;;;0.98;;
66145;SDS011;52948;60.040;30.320;2023-01-08T21:05:40;2.67;;;1.48;;
66145;SDS011;52948;60.040;30.320;2023-01-08T21:10:43;4.40;;;2.10;;
66145;SDS011;52948;60.040;30.320;2023-01-08T21:15:47;3.13;;;1.75;;
66145;SDS011;52948;60.040;30.320;2023-01-08T21:20:49;4.70;;;2.40;;
66145;SDS011;52948;60.040;30.320;2023-01-08T21:25:56;2.58;;;1.58;;
66145;SDS011;52948;60.040;30.320;2023-01-08T21:31:19;4.20;;;1.75;;
66145;SDS011;52948;60.040;30.320;2023-01-08T21:36:26;1.85;;;1.52;;
66145;SDS011;52948;60.040;30.320;2023-01-08T21:42:08;4.68;;;1.10;;
66145;SDS011;52948;60.040;30.320;2023-01-08T21:52:42;2.30;;;2.10;;
66145;SDS011;52948;60.040;30.320;2023-01-08T21:58:03;3.08;;;2.20;;
66145;SDS011;52948;60.040;30.320;2023-01-08T22:03:06;6.32;;;2.70;;
66145;SDS011;52948;60.040;30.320;2023-01-08T22:08:33;2.88;;;1.60;;
66145;SDS011;52948;60.040;30.320;2023-01-08T22:13:36;5.90;;;2.85;;
66145;SDS011;52948;60.040;30.320;2023-01-08T22:18:40;6.13;;;0.73;;
66145;SDS011;52948;60.040;30.320;2023-01-08T22:23:43;2.20;;;1.23;;
66145;SDS011;52948;60.040;30.320;2023-01-08T22:28:49;3.80;;;1.88;;
66145;SDS011;52948;60.040;30.320;2023-01-08T22:33:52;3.58;;;1.92;;
66145;SDS011;52948;60.040;30.320;2023-01-08T22:38:56;6.13;;;2.03;;
66145;SDS011;52948;60.040;30.320;2023-01-08T22:43:58;2.00;;;1.00;;
66145;SDS011;52948;60.040;30.320;2023-01-08T22:49:00;1.23;;;0.90;;
66145;SDS011;52948;60.040;30.320;2023-01-08T22:54:03;2.20;;;1.23;;
66145;SDS011;52948;60.040;30.320;2023-01-08T22:59:09;3.22;;;1.27;;
66145;SDS011;52948;60.040;30.320;2023-01-08T23:04:37;2.40;;;1.45;;
66145;SDS011;52948;60.040;30.320;2023-01-08T23:09:40;8.52;;;2.85;;
66145;SDS011;52948;60.040;30.320;2023-01-08T23:14:44;2.78;;;1.70;;
66145;SDS011;52948;60.040;30.320;2023-01-08T23:19:47;4.45;;;2.33;;
66145;SDS011;52948;60.040;30.320;2023-01-08T23:24:50;2.03;;;1.65;;
66145;SDS011;52948;60.040;30.320;2023-01-08T23:29:52;2.55;;;1.48;;
66145;SDS011;52948;60.040;30.320;2023-01-08T23:34:55;4.90;;;3.13;;
66145;SDS011;52948;60.040;30.320;2023-01-08T23:39:57;3.63;;;2.00;;
66145;SDS011;52948;60.040;30.320;2023-01-08T23:45:00;4.05;;;1.73;;
66145;SDS011;52948;60.040;30.320;2023-01-08T23:50:03;2.67;;;1.77;;
66145;SDS011;52948;60.040;30.320;2023-01-08T23:55:06;3.67;;;2.10;;
